Terminal Aerodrome Forecast
Issued by NWS

Home | Current Version | Previous Version | Text Only | Print | Product List | Glossary On
Versions: 1 2 3 4 5 6 7 8 9 10 11 12 13 14 15 16 17 18 19 20
741
FTUS45 KABQ 281122
TAFLVS
TAF
KLVS 281122Z 2812/2912 VRB06KT P6SM FEW120
     FM281600 24011KT P6SM SKC
     FM281700 24016G26KT P6SM SKC
     FM290200 24010KT P6SM SKC=

USA.gov is the U.S. government's official web portal to all federal, state and local government web resources and services.